Time;durP1;ratioP1;P1;durP2;ratioP2;P2;SDS_P1;SDS_P2;PMS_P1;PMS_P2;Temp;Humidity;BMP_temperature;BMP_pressure;BME280_temperature;BME280_humidity;BME280_pressure;Samples;Min_cycle;Max_cycle;Signal;HPM_P1;HPM_P2
2021/08/29 00:00:14;;;;;;;5.53;5.10;;;12.20;99.90;;;;;;6260966;22;20158;-89
2021/08/29 00:02:40;;;;;;;5.70;5.30;;;12.10;99.90;;;;;;6262826;22;20389;-89
2021/08/29 00:05:07;;;;;;;5.43;4.93;;;12.10;99.90;;;;;;6261187;22;20200;-89
2021/08/29 00:07:33;;;;;;;5.07;4.57;;;12.10;99.90;;;;;;6234304;22;20154;-89
2021/08/29 00:09:59;;;;;;;5.83;5.27;;;12.10;99.90;;;;;;6262611;22;20458;-89
2021/08/29 00:12:25;;;;;;;6.03;5.43;;;12.10;99.90;;;;;;6261375;22;20515;-89
2021/08/29 00:14:51;;;;;;;5.73;4.90;;;12.10;99.90;;;;;;6239234;22;20167;-90
2021/08/29 00:17:19;;;;;;;5.97;5.37;;;12.10;99.90;;;;;;6262325;22;20898;-90
2021/08/29 00:19:45;;;;;;;4.90;4.50;;;12.10;99.90;;;;;;6261777;22;20173;-89
2021/08/29 00:22:11;;;;;;;5.97;5.40;;;12.10;99.90;;;;;;6262744;22;20746;-89
2021/08/29 00:24:37;;;;;;;5.70;5.10;;;12.10;99.90;;;;;;6263928;22;20198;-88
2021/08/29 00:27:03;;;;;;;5.83;5.27;;;12.10;99.90;;;;;;6260909;22;20424;-89
2021/08/29 00:29:29;;;;;;;5.60;5.20;;;12.10;99.90;;;;;;6263297;22;20602;-89
2021/08/29 00:31:54;;;;;;;5.70;5.20;;;12.10;99.90;;;;;;6262191;22;20172;-89
2021/08/29 00:34:21;;;;;;;5.90;5.40;;;12.00;99.90;;;;;;6260980;22;20223;-89
2021/08/29 00:36:47;;;;;;;5.60;5.10;;;12.00;99.90;;;;;;6263313;22;20154;-89
2021/08/29 00:39:12;;;;;;;4.30;4.00;;;12.00;99.90;;;;;;6235458;22;20454;-88
2021/08/29 00:41:41;;;;;;;7.33;4.70;;;12.10;99.90;;;;;;6262204;22;20385;-89
2021/08/29 00:44:07;;;;;;;5.83;5.43;;;12.10;99.90;;;;;;6233649;22;20197;-88
2021/08/29 00:46:33;;;;;;;5.30;4.90;;;12.20;99.90;;;;;;6239168;22;20388;-88
2021/08/29 00:48:59;;;;;;;5.07;4.67;;;12.20;99.90;;;;;;6237949;22;20439;-88
2021/08/29 00:51:25;;;;;;;5.50;5.00;;;12.10;99.90;;;;;;6262992;22;20388;-88
2021/08/29 00:53:56;;;;;;;5.63;5.13;;;12.20;99.90;;;;;;6238997;22;20171;-88
2021/08/29 00:56:23;;;;;;;5.60;5.20;;;12.10;99.90;;;;;;6236980;22;20158;-88
2021/08/29 00:58:50;;;;;;;5.20;4.80;;;12.20;99.90;;;;;;6238432;22;20401;-89
2021/08/29 01:01:18;;;;;;;4.53;4.13;;;12.20;99.90;;;;;;6238056;22;20434;-89
2021/08/29 01:03:46;;;;;;;5.30;4.80;;;12.20;99.90;;;;;;6238660;22;20393;-89
2021/08/29 01:06:51;;;;;;;5.40;4.90;;;12.20;99.90;;;;;;6236626;22;20879;-89
2021/08/29 01:09:19;;;;;;;5.27;4.83;;;12.00;99.90;;;;;;6168128;23;20422;-89
2021/08/29 01:11:49;;;;;;;6.10;5.50;;;12.00;99.90;;;;;;6228496;22;20956;-89
2021/08/29 01:14:22;;;;;;;5.17;4.77;;;12.00;99.90;;;;;;6239772;22;20393;-89
2021/08/29 01:16:52;;;;;;;5.57;5.07;;;12.10;99.90;;;;;;6237946;22;20389;-89
2021/08/29 01:19:18;;;;;;;5.20;4.70;;;12.10;99.90;;;;;;6237122;22;20393;-89
2021/08/29 01:21:47;;;;;;;8.27;5.13;;;12.10;99.90;;;;;;6263829;22;20397;-89
2021/08/29 01:24:18;;;;;;;6.57;6.07;;;12.00;99.90;;;;;;6209515;23;20610;-89
2021/08/29 01:26:52;;;;;;;6.30;5.77;;;11.90;99.90;;;;;;6205190;23;20860;-89
2021/08/29 01:29:23;;;;;;;7.10;6.50;;;11.90;99.90;;;;;;6208124;23;20706;-89
2021/08/29 01:31:49;;;;;;;6.60;6.00;;;11.90;99.90;;;;;;6206803;23;20433;-90
2021/08/29 01:34:17;;;;;;;7.10;6.40;;;11.90;99.90;;;;;;6207504;23;20398;-89
2021/08/29 01:36:45;;;;;;;6.83;6.23;;;11.90;99.90;;;;;;6208814;23;20174;-89
2021/08/29 01:39:11;;;;;;;7.50;6.70;;;11.90;99.90;;;;;;6209041;23;20786;-89
2021/08/29 01:41:40;;;;;;;7.30;6.60;;;11.80;99.90;;;;;;6207744;23;20402;-89
2021/08/29 01:44:07;;;;;;;7.80;7.10;;;11.80;99.90;;;;;;6206691;23;20516;-89
2021/08/29 01:46:34;;;;;;;8.53;6.67;;;11.80;99.90;;;;;;6207038;23;20405;-89
2021/08/29 01:49:02;;;;;;;9.43;7.97;;;11.70;99.90;;;;;;6207645;23;21005;-89
2021/08/29 01:51:28;;;;;;;8.00;7.30;;;11.80;99.90;;;;;;6207919;23;20425;-89
2021/08/29 01:53:54;;;;;;;9.93;8.20;;;11.90;99.90;;;;;;6209745;23;20440;-89
2021/08/29 01:56:19;;;;;;;9.03;8.13;;;12.00;99.90;;;;;;6207817;23;20754;-88
2021/08/29 01:58:46;;;;;;;8.43;7.63;;;12.00;99.90;;;;;;6182831;23;20414;-88
2021/08/29 02:01:15;;;;;;;9.80;8.60;;;12.00;99.90;;;;;;6207693;23;20726;-89
2021/08/29 02:03:43;;;;;;;9.40;8.50;;;12.00;99.90;;;;;;6208402;23;20159;-88
2021/08/29 02:06:25;;;;;;;8.63;7.80;;;11.90;99.90;;;;;;6208442;23;20406;-89
2021/08/29 02:09:01;;;;;;;8.70;7.80;;;11.90;99.90;;;;;;6208750;23;20394;-89
2021/08/29 02:11:30;;;;;;;9.97;9.07;;;12.00;99.90;;;;;;6209097;23;20418;-89
2021/08/29 02:14:01;;;;;;;10.70;9.70;;;12.00;99.90;;;;;;6206173;23;20390;-89
2021/08/29 02:16:27;;;;;;;9.40;8.40;;;12.00;99.90;;;;;;6208293;23;20826;-89
2021/08/29 02:18:55;;;;;;;9.73;8.87;;;12.00;99.90;;;;;;6209299;23;20402;-89
2021/08/29 02:21:26;;;;;;;10.70;9.60;;;12.00;99.90;;;;;;6207771;23;20412;-89
2021/08/29 02:23:52;;;;;;;10.83;9.73;;;12.00;99.90;;;;;;6236482;22;20429;-89
2021/08/29 02:26:18;;;;;;;10.93;9.83;;;11.90;99.90;;;;;;6263138;22;20440;-89
2021/08/29 02:28:44;;;;;;;10.97;9.83;;;11.90;99.90;;;;;;6262751;22;20189;-89
2021/08/29 02:31:10;;;;;;;10.40;9.40;;;11.90;99.90;;;;;;6261984;22;20400;-89
2021/08/29 02:33:36;;;;;;;10.60;9.60;;;11.90;99.90;;;;;;6236164;22;20373;-89
2021/08/29 02:36:03;;;;;;;10.90;9.57;;;11.90;99.90;;;;;;6265130;22;20419;-89
2021/08/29 02:38:29;;;;;;;10.53;9.53;;;11.90;99.90;;;;;;6241792;22;20185;-88
2021/08/29 02:40:58;;;;;;;10.10;9.20;;;12.00;99.90;;;;;;6238140;22;20445;-89
2021/08/29 02:43:25;;;;;;;10.70;9.40;;;12.00;99.90;;;;;;6237382;22;20393;-88
2021/08/29 02:45:51;;;;;;;8.80;7.90;;;12.00;99.90;;;;;;6235790;22;20447;-88
2021/08/29 02:48:17;;;;;;;9.37;8.47;;;12.00;99.90;;;;;;6237650;22;20467;-88
2021/08/29 02:50:46;;;;;;;9.13;8.23;;;12.00;99.90;;;;;;6235534;22;20385;-88
2021/08/29 02:53:16;;;;;;;9.57;8.57;;;11.90;99.90;;;;;;6237897;22;20385;-89
2021/08/29 02:55:46;;;;;;;8.53;7.73;;;11.90;99.90;;;;;;6239626;22;20701;-88
2021/08/29 02:58:13;;;;;;;8.20;7.50;;;11.90;99.90;;;;;;6238757;22;20477;-89
2021/08/29 03:00:38;;;;;;;9.43;8.53;;;11.90;99.90;;;;;;6239148;22;20460;-89
2021/08/29 03:03:04;;;;;;;8.00;7.20;;;12.00;99.90;;;;;;6239212;22;20759;-88
2021/08/29 03:05:30;;;;;;;9.40;8.10;;;11.90;99.90;;;;;;6262537;22;20581;-88
2021/08/29 03:07:57;;;;;;;8.30;7.30;;;11.90;99.90;;;;;;6237585;22;20233;-88
2021/08/29 03:10:23;;;;;;;8.47;7.53;;;11.80;99.90;;;;;;6266051;22;20437;-88
2021/08/29 03:12:49;;;;;;;8.07;7.30;;;11.90;99.90;;;;;;6237646;22;20418;-88
2021/08/29 03:15:16;;;;;;;8.50;7.70;;;11.90;99.90;;;;;;6265242;22;20488;-88
2021/08/29 03:17:41;;;;;;;9.30;7.30;;;11.90;99.90;;;;;;6238821;22;20385;-89
2021/08/29 03:20:08;;;;;;;9.13;8.27;;;12.00;99.90;;;;;;6264292;22;20811;-89
2021/08/29 03:22:43;;;;;;;8.67;7.87;;;12.00;99.90;;;;;;6237860;22;20201;-89
2021/08/29 03:25:09;;;;;;;7.33;6.63;;;12.00;99.90;;;;;;6262104;22;20951;-89
2021/08/29 03:27:35;;;;;;;8.57;7.77;;;12.00;99.90;;;;;;6262595;22;20424;-89
2021/08/29 03:30:00;;;;;;;7.70;6.90;;;12.10;99.90;;;;;;6262209;22;20743;-89
2021/08/29 03:32:26;;;;;;;7.83;7.17;;;12.10;99.90;;;;;;6264583;22;20162;-89
2021/08/29 03:34:58;;;;;;;9.13;7.60;;;12.00;99.90;;;;;;6261567;22;20162;-89
2021/08/29 03:37:25;;;;;;;7.30;6.70;;;12.00;99.90;;;;;;6263055;22;20194;-89
2021/08/29 03:39:52;;;;;;;8.47;7.67;;;12.00;99.90;;;;;;6263348;22;20389;-89
2021/08/29 03:42:19;;;;;;;9.60;7.00;;;12.00;99.90;;;;;;6263867;22;20628;-89
2021/08/29 03:44:44;;;;;;;7.87;7.07;;;12.00;99.90;;;;;;6262084;22;20506;-89
2021/08/29 03:47:11;;;;;;;8.33;7.37;;;12.00;99.90;;;;;;6264329;22;20934;-89
2021/08/29 03:49:37;;;;;;;8.27;7.47;;;12.00;99.90;;;;;;6264743;22;20154;-89
2021/08/29 03:52:03;;;;;;;7.87;7.07;;;11.90;99.90;;;;;;6261933;22;20385;-90
2021/08/29 03:54:29;;;;;;;8.90;8.07;;;11.80;99.90;;;;;;6261069;22;20384;-89
2021/08/29 03:56:55;;;;;;;8.67;7.77;;;11.90;99.90;;;;;;6262406;22;20930;-89
2021/08/29 03:59:21;;;;;;;9.10;8.20;;;11.90;99.90;;;;;;6262237;22;20428;-89
2021/08/29 04:01:46;;;;;;;8.47;7.77;;;11.90;99.90;;;;;;6263283;22;20158;-89
2021/08/29 04:04:12;;;;;;;8.93;7.77;;;12.00;99.90;;;;;;6262249;22;20621;-89
2021/08/29 04:06:39;;;;;;;8.17;7.40;;;12.00;99.90;;;;;;6262622;22;20173;-89
2021/08/29 04:09:07;;;;;;;8.23;7.33;;;12.00;99.90;;;;;;6263848;22;20167;-88
2021/08/29 04:11:34;;;;;;;7.93;7.13;;;12.00;99.90;;;;;;6264901;22;20957;-89
2021/08/29 04:14:00;;;;;;;9.20;8.40;;;12.00;99.90;;;;;;6261786;22;20412;-89
2021/08/29 04:16:26;;;;;;;6.90;6.30;;;12.00;99.90;;;;;;6238687;22;20863;-89
2021/08/29 04:18:53;;;;;;;7.37;6.67;;;12.00;99.90;;;;;;6240461;22;20405;-89
2021/08/29 04:21:25;;;;;;;8.37;7.57;;;12.00;99.90;;;;;;6263691;22;20853;-89
2021/08/29 04:23:52;;;;;;;7.57;6.87;;;11.90;99.90;;;;;;6261683;22;20491;-89
2021/08/29 04:26:17;;;;;;;7.00;6.30;;;11.90;99.90;;;;;;6264106;22;20970;-89
2021/08/29 04:28:44;;;;;;;7.60;6.90;;;11.90;99.90;;;;;;6262294;22;20385;-89
2021/08/29 04:31:23;;;;;;;8.37;7.57;;;11.90;99.90;;;;;;6262338;22;20404;-89
2021/08/29 04:33:50;;;;;;;11.63;7.37;;;11.90;99.90;;;;;;6258999;22;20450;-89
2021/08/29 04:36:18;;;;;;;7.97;7.17;;;11.90;99.90;;;;;;6265222;22;20401;-89
2021/08/29 04:38:44;;;;;;;8.87;7.63;;;11.90;99.90;;;;;;6264485;22;20389;-89
2021/08/29 04:41:09;;;;;;;8.47;7.67;;;11.90;99.90;;;;;;6262011;22;20412;-89
2021/08/29 04:43:35;;;;;;;9.50;7.80;;;11.80;99.90;;;;;;6262690;22;20235;-89
2021/08/29 04:46:01;;;;;;;8.63;7.80;;;11.80;99.90;;;;;;6263387;22;20248;-89
2021/08/29 04:48:26;;;;;;;7.97;7.27;;;11.90;99.90;;;;;;6263520;22;20169;-90
2021/08/29 04:50:52;;;;;;;8.50;7.70;;;11.90;99.90;;;;;;6261262;22;20170;-90
2021/08/29 04:53:18;;;;;;;8.33;6.83;;;11.90;99.90;;;;;;6260071;22;20170;-90
2021/08/29 04:55:43;;;;;;;7.97;7.17;;;12.00;99.90;;;;;;6264017;22;20169;-90
2021/08/29 04:58:09;;;;;;;9.43;8.10;;;12.00;99.90;;;;;;6263748;22;20173;-90
2021/08/29 05:00:35;;;;;;;8.83;8.03;;;12.00;99.90;;;;;;6264635;22;20169;-90
2021/08/29 05:03:00;;;;;;;10.30;7.20;;;12.00;99.90;;;;;;6266327;22;20627;-90
2021/08/29 05:05:26;;;;;;;8.87;7.40;;;11.90;99.90;;;;;;6264938;22;20197;-89
2021/08/29 05:07:52;;;;;;;8.33;7.50;;;11.90;99.90;;;;;;6263264;22;20158;-90
2021/08/29 05:10:17;;;;;;;8.67;7.87;;;11.80;99.90;;;;;;6266260;22;20193;-91
2021/08/29 05:12:43;;;;;;;8.20;7.40;;;11.80;99.90;;;;;;6264355;22;20158;-90
2021/08/29 05:15:09;;;;;;;8.93;8.13;;;11.90;99.90;;;;;;6267242;22;20489;-91
2021/08/29 05:17:35;;;;;;;8.13;7.33;;;12.00;99.90;;;;;;6264469;22;20162;-90
2021/08/29 05:20:01;;;;;;;8.50;7.40;;;12.10;99.90;;;;;;6262841;22;20412;-90
2021/08/29 05:22:26;;;;;;;8.43;7.57;;;12.00;99.90;;;;;;6264879;22;20266;-90
2021/08/29 05:24:52;;;;;;;8.57;7.73;;;12.00;99.90;;;;;;6263028;22;20612;-90
2021/08/29 05:27:18;;;;;;;9.33;8.30;;;12.00;99.90;;;;;;6264279;22;20170;-90
2021/08/29 05:29:43;;;;;;;8.50;7.60;;;12.00;99.90;;;;;;6264740;22;20162;-90
2021/08/29 05:32:09;;;;;;;7.80;7.10;;;12.00;99.90;;;;;;6263931;22;20244;-90
2021/08/29 05:34:35;;;;;;;9.73;8.17;;;12.00;99.90;;;;;;6265223;22;20966;-90
2021/08/29 05:37:00;;;;;;;8.17;7.37;;;12.00;99.90;;;;;;6263752;22;20466;-89
2021/08/29 05:39:26;;;;;;;8.37;7.57;;;12.10;99.90;;;;;;6259833;22;20515;-90
2021/08/29 05:41:52;;;;;;;8.50;7.70;;;12.10;99.90;;;;;;6260464;22;20393;-90
2021/08/29 05:44:17;;;;;;;9.33;8.07;;;12.10;99.90;;;;;;6265253;22;20271;-90
2021/08/29 05:46:43;;;;;;;8.90;8.03;;;12.10;99.90;;;;;;6261959;22;20169;-90
2021/08/29 05:49:09;;;;;;;8.70;7.77;;;12.20;99.90;;;;;;6264212;22;20601;-89
2021/08/29 05:51:35;;;;;;;8.03;7.23;;;12.20;99.90;;;;;;6263450;22;20162;-89
2021/08/29 05:54:00;;;;;;;8.60;7.70;;;12.10;99.90;;;;;;6262545;22;20174;-89
2021/08/29 05:56:26;;;;;;;8.40;7.60;;;12.10;99.90;;;;;;6264211;22;20196;-89
2021/08/29 05:58:52;;;;;;;7.57;6.83;;;12.20;99.90;;;;;;6263170;22;20212;-89
2021/08/29 06:01:18;;;;;;;8.30;7.37;;;12.20;99.90;;;;;;6264074;22;20162;-89
2021/08/29 06:03:44;;;;;;;9.03;7.83;;;12.20;99.90;;;;;;6262626;22;20269;-89
2021/08/29 06:06:10;;;;;;;8.00;7.30;;;12.30;99.90;;;;;;6264246;22;20403;-89
2021/08/29 06:08:35;;;;;;;7.33;6.53;;;12.30;99.90;;;;;;6263223;22;20419;-89
2021/08/29 06:11:01;;;;;;;7.53;6.77;;;12.30;99.90;;;;;;6263482;22;20193;-89
2021/08/29 06:13:27;;;;;;;8.27;6.93;;;12.20;99.90;;;;;;6265482;22;20162;-90
2021/08/29 06:15:53;;;;;;;8.47;7.67;;;12.20;99.90;;;;;;6264112;22;20162;-89
2021/08/29 06:18:18;;;;;;;7.30;6.60;;;12.20;99.90;;;;;;6263626;22;20241;-90
2021/08/29 06:20:44;;;;;;;7.10;6.40;;;12.20;99.90;;;;;;6266621;22;20584;-89
2021/08/29 06:23:10;;;;;;;7.60;6.80;;;12.30;99.90;;;;;;6264581;22;20178;-88
2021/08/29 06:25:36;;;;;;;7.00;6.30;;;12.30;99.90;;;;;;6262509;22;20194;-89
2021/08/29 06:28:02;;;;;;;7.27;6.57;;;12.40;99.90;;;;;;6262443;22;20245;-88
2021/08/29 06:30:28;;;;;;;6.30;5.70;;;12.30;99.90;;;;;;6265564;22;20470;-88
2021/08/29 06:32:54;;;;;;;7.13;6.43;;;12.40;99.90;;;;;;6263906;22;20389;-88
2021/08/29 06:35:20;;;;;;;6.47;5.87;;;12.40;99.90;;;;;;6262002;22;20431;-88
2021/08/29 06:37:46;;;;;;;6.77;6.17;;;12.40;99.90;;;;;;6263359;22;20150;-88
2021/08/29 06:40:13;;;;;;;7.33;6.63;;;12.40;99.90;;;;;;6264396;22;20166;-89
2021/08/29 06:42:41;;;;;;;7.70;7.00;;;12.50;99.90;;;;;;6265069;22;20388;-90
2021/08/29 06:45:08;;;;;;;7.00;6.30;;;12.50;99.90;;;;;;6263876;22;20472;-89
2021/08/29 06:47:33;;;;;;;7.27;6.57;;;12.50;99.90;;;;;;6263858;22;20397;-89
2021/08/29 06:49:59;;;;;;;6.80;6.20;;;12.60;99.90;;;;;;6260401;22;20796;-89
2021/08/29 06:52:24;;;;;;;7.63;6.93;;;12.70;99.90;;;;;;6261015;22;20162;-89
2021/08/29 06:54:50;;;;;;;6.93;6.23;;;12.60;99.90;;;;;;6265285;22;20173;-90
2021/08/29 06:57:16;;;;;;;6.90;6.30;;;12.70;99.90;;;;;;6262204;22;20711;-88
2021/08/29 06:59:42;;;;;;;7.27;6.60;;;12.70;99.90;;;;;;6263903;22;20170;-91
2021/08/29 07:02:07;;;;;;;7.33;6.60;;;12.80;99.90;;;;;;6261780;22;20735;-90
2021/08/29 07:04:33;;;;;;;6.30;5.33;;;12.80;99.90;;;;;;6262873;22;20182;-91
2021/08/29 07:06:59;;;;;;;5.87;5.37;;;12.90;99.90;;;;;;6262779;22;20173;-89
2021/08/29 07:09:24;;;;;;;5.13;4.73;;;12.90;99.90;;;;;;6260202;22;20172;-93
2021/08/29 07:11:50;;;;;;;4.90;4.50;;;13.00;99.90;;;;;;6260734;22;20165;-91
2021/08/29 07:14:16;;;;;;;5.40;5.00;;;13.00;99.90;;;;;;6258843;22;20640;-91
2021/08/29 07:16:41;;;;;;;5.47;4.90;;;13.00;99.90;;;;;;6260921;22;20162;-92
2021/08/29 07:19:07;;;;;;;5.93;5.33;;;13.10;99.90;;;;;;6260901;22;20249;-91
2021/08/29 07:21:33;;;;;;;5.07;4.67;;;13.20;99.90;;;;;;6263405;22;20593;-91
2021/08/29 07:23:59;;;;;;;4.73;4.33;;;13.20;99.90;;;;;;6261886;22;20966;-92
2021/08/29 07:26:25;;;;;;;4.67;4.27;;;13.30;99.90;;;;;;6264480;22;20240;-91
2021/08/29 07:28:51;;;;;;;3.37;3.07;;;13.30;99.90;;;;;;6263268;22;20830;-91
2021/08/29 07:36:37;;;;;;;4.23;3.83;;;13.30;99.90;;;;;;6269096;22;20479;-93
2021/08/29 07:39:03;;;;;;;3.90;3.60;;;13.40;99.90;;;;;;6237776;22;20405;-94
2021/08/29 07:41:29;;;;;;;4.00;3.60;;;13.40;99.90;;;;;;6243707;22;20154;-92
2021/08/29 07:43:54;;;;;;;3.20;2.90;;;13.40;99.90;;;;;;6239063;22;20166;-94
2021/08/29 07:46:24;;;;;;;3.90;3.50;;;13.50;99.90;;;;;;6240196;22;20243;-94
2021/08/29 07:48:50;;;;;;;2.90;2.70;;;13.40;99.90;;;;;;6240351;22;20158;-93
2021/08/29 07:51:16;;;;;;;3.80;3.50;;;13.50;99.90;;;;;;6238434;22;20401;-92
2021/08/29 07:53:42;;;;;;;3.37;3.10;;;13.50;99.90;;;;;;6238327;22;20405;-92
2021/08/29 07:56:07;;;;;;;3.80;3.50;;;13.40;99.90;;;;;;6240470;22;20222;-94
2021/08/29 07:58:33;;;;;;;3.50;3.20;;;13.40;99.90;;;;;;6238480;22;20162;-94
2021/08/29 08:00:59;;;;;;;3.77;3.43;;;13.40;99.90;;;;;;6247245;22;20205;-95
2021/08/29 08:03:24;;;;;;;3.40;3.10;;;13.40;99.90;;;;;;6269119;22;20166;-95
2021/08/29 08:05:50;;;;;;;2.70;2.50;;;13.40;99.90;;;;;;6267164;22;20213;-95
2021/08/29 08:08:16;;;;;;;2.60;2.40;;;13.50;99.90;;;;;;6269525;22;20172;-95
2021/08/29 08:10:42;;;;;;;3.20;3.00;;;13.40;99.90;;;;;;6270739;22;20711;-96
2021/08/29 08:13:08;;;;;;;3.30;3.10;;;13.30;99.90;;;;;;6281003;22;20253;-95
2021/08/29 08:15:34;;;;;;;2.93;2.73;;;13.40;99.90;;;;;;6276409;22;20555;-94
2021/08/29 08:17:59;;;;;;;3.83;3.50;;;13.20;99.90;;;;;;6271654;22;20162;-92
2021/08/29 08:20:25;;;;;;;3.73;3.17;;;13.20;99.90;;;;;;6269094;22;20215;-93
2021/08/29 08:22:51;;;;;;;3.23;3.03;;;13.20;99.90;;;;;;6269207;22;20622;-94
2021/08/29 08:25:25;;;;;;;3.50;3.20;;;13.20;99.90;;;;;;6268754;22;20198;-96
2021/08/29 08:27:56;;;;;;;3.10;2.90;;;13.20;99.90;;;;;;6293980;22;20507;-94
2021/08/29 08:30:22;;;;;;;3.03;2.83;;;13.20;99.90;;;;;;6268094;22;20712;-93
2021/08/29 08:32:47;;;;;;;2.80;2.63;;;13.20;99.90;;;;;;6271966;22;20432;-93
2021/08/29 08:35:13;;;;;;;3.20;3.00;;;13.10;99.90;;;;;;6269536;22;20189;-93
2021/08/29 08:37:39;;;;;;;3.87;3.57;;;13.20;99.90;;;;;;6261932;22;20222;-95
2021/08/29 08:40:06;;;;;;;2.67;2.47;;;13.20;99.90;;;;;;6343857;22;20166;-95
2021/08/29 08:42:31;;;;;;;2.80;2.60;;;13.20;99.90;;;;;;6327346;22;20600;-92
2021/08/29 08:44:58;;;;;;;2.80;2.60;;;13.20;99.90;;;;;;6326944;22;20450;-92
2021/08/29 08:47:25;;;;;;;2.37;2.13;;;13.20;99.90;;;;;;6325491;22;20249;-91
2021/08/29 08:49:55;;;;;;;1.80;1.70;;;13.20;99.90;;;;;;6324651;22;20396;-90
2021/08/29 08:52:24;;;;;;;2.30;2.10;;;13.20;99.90;;;;;;6323544;22;20399;-89
2021/08/29 08:54:53;;;;;;;2.30;2.10;;;13.20;99.90;;;;;;6322655;22;20400;-90
2021/08/29 08:57:19;;;;;;;2.23;2.13;;;13.30;99.90;;;;;;6324261;22;20391;-94
2021/08/29 08:59:47;;;;;;;2.57;2.37;;;13.40;99.90;;;;;;6324371;22;20392;-94
2021/08/29 09:02:13;;;;;;;1.70;1.60;;;13.50;99.90;;;;;;6324250;22;20396;-90
2021/08/29 09:04:40;;;;;;;2.10;2.00;;;13.40;99.90;;;;;;6324441;22;20431;-94
2021/08/29 09:07:06;;;;;;;1.47;1.37;;;13.40;99.90;;;;;;6323521;22;20392;-94
2021/08/29 09:09:36;;;;;;;1.70;1.60;;;13.50;99.90;;;;;;6321099;22;20391;-95
2021/08/29 09:12:02;;;;;;;2.47;2.23;;;13.40;99.90;;;;;;6324369;22;20411;-95
2021/08/29 09:14:38;;;;;;;2.10;2.00;;;13.50;99.90;;;;;;6324140;22;20395;-94
2021/08/29 09:17:26;;;;;;;2.10;2.00;;;13.50;99.90;;;;;;6298265;22;20407;-95
2021/08/29 09:20:20;;;;;;;1.53;1.43;;;13.50;99.90;;;;;;6297993;22;20915;-95
2021/08/29 09:22:58;;;;;;;1.83;1.73;;;13.70;99.90;;;;;;6298671;22;20384;-96
2021/08/29 09:25:26;;;;;;;2.80;2.60;;;13.70;99.90;;;;;;6324847;22;20439;-95
2021/08/29 09:27:54;;;;;;;2.80;2.30;;;14.00;99.90;;;;;;6324031;22;20761;-95
2021/08/29 09:30:22;;;;;;;1.40;1.37;;;14.20;99.90;;;;;;6324286;22;20499;-94
2021/08/29 09:32:49;;;;;;;3.60;3.30;;;14.30;99.90;;;;;;6324759;22;20487;-93
2021/08/29 09:35:18;;;;;;;3.50;3.20;;;14.50;99.90;;;;;;6297492;22;20458;-94
2021/08/29 09:37:44;;;;;;;1.27;1.17;;;14.60;99.90;;;;;;6321854;22;20403;-94
2021/08/29 10:22:02;;;;;;;0.70;0.70;;;16.00;99.90;;;;;;6234222;22;22234;-96
2021/08/29 10:27:13;;;;;;;1.83;0.50;;;16.40;99.90;;;;;;6221037;22;20456;-96
2021/08/29 10:29:50;;;;;;;0.87;0.87;;;16.50;99.90;;;;;;6227760;23;20385;-96
2021/08/29 10:35:13;;;;;;;0.67;0.67;;;16.10;99.90;;;;;;6288263;22;20444;-96
2021/08/29 10:42:59;;;;;;;0.53;0.53;;;15.80;99.90;;;;;;6258182;22;20462;-96
2021/08/29 11:01:41;;;;;;;0.70;0.70;;;15.30;99.90;;;;;;6291607;22;20447;-89
2021/08/29 11:04:19;;;;;;;1.00;1.00;;;15.10;99.90;;;;;;6293069;22;20436;-93
2021/08/29 11:06:59;;;;;;;0.90;0.90;;;15.00;99.90;;;;;;6289428;22;20410;-92
2021/08/29 11:09:34;;;;;;;1.30;1.20;;;14.80;99.90;;;;;;6316917;22;20601;-92
2021/08/29 11:12:04;;;;;;;1.10;1.10;;;14.80;99.90;;;;;;6293466;22;20461;-90
2021/08/29 11:15:00;;;;;;;2.60;2.50;;;14.80;99.90;;;;;;6318497;22;20727;-93
2021/08/29 11:17:30;;;;;;;0.93;0.93;;;15.00;99.90;;;;;;6260947;22;20392;-88
2021/08/29 11:20:10;;;;;;;2.77;2.53;;;14.90;99.90;;;;;;6315629;22;20395;-88
2021/08/29 11:22:49;;;;;;;1.40;1.27;;;14.70;99.90;;;;;;6317518;22;20862;-88
2021/08/29 11:25:21;;;;;;;1.23;1.20;;;14.50;99.90;;;;;;6319510;22;20391;-87
2021/08/29 11:27:58;;;;;;;1.10;1.10;;;14.60;99.90;;;;;;6294864;22;20403;-95
2021/08/29 11:30:36;;;;;;;2.40;2.20;;;14.80;99.90;;;;;;6327191;22;20380;-96
2021/08/29 11:33:05;;;;;;;2.70;2.50;;;15.10;99.90;;;;;;6303945;22;20400;-96
2021/08/29 11:35:38;;;;;;;2.60;2.50;;;15.30;99.90;;;;;;6335678;22;20464;-96
2021/08/29 11:38:17;;;;;;;2.50;2.40;;;15.60;99.90;;;;;;6340085;22;20422;-96
2021/08/29 11:40:47;;;;;;;3.33;3.03;;;16.00;99.90;;;;;;6290592;22;20428;-95
2021/08/29 11:43:18;;;;;;;3.80;3.40;;;16.40;99.90;;;;;;6290955;22;20874;-94
2021/08/29 11:46:19;;;;;;;3.67;3.37;;;16.40;99.90;;;;;;6313543;22;20712;-93
2021/08/29 11:48:52;;;;;;;3.50;3.30;;;16.30;99.90;;;;;;6273900;22;20392;-96
2021/08/29 11:51:23;;;;;;;4.10;3.70;;;16.10;99.90;;;;;;6291328;22;20419;-92
2021/08/29 11:53:49;;;;;;;4.40;4.10;;;15.80;99.90;;;;;;6293880;22;20396;-96
2021/08/29 11:56:19;;;;;;;4.77;4.37;;;15.60;99.90;;;;;;6324558;22;20541;-96
2021/08/29 11:58:48;;;;;;;4.20;3.90;;;15.50;99.90;;;;;;6323267;22;20707;-95
2021/08/29 12:01:15;;;;;;;5.10;4.80;;;15.50;99.90;;;;;;6293660;22;20549;-95
2021/08/29 12:03:41;;;;;;;4.90;4.60;;;15.40;99.90;;;;;;6320313;22;20395;-94
2021/08/29 12:06:27;;;;;;;5.00;4.60;;;15.50;99.90;;;;;;6323218;22;20427;-96
2021/08/29 12:09:06;;;;;;;5.07;4.70;;;15.50;99.90;;;;;;6330248;22;20930;-96
2021/08/29 12:11:36;;;;;;;5.23;4.83;;;15.40;99.90;;;;;;6323410;22;20391;-96
2021/08/29 12:14:20;;;;;;;4.77;4.47;;;15.50;99.90;;;;;;6320774;22;20395;-94
2021/08/29 12:16:56;;;;;;;4.87;4.57;;;15.60;99.90;;;;;;6324087;22;20392;-93
2021/08/29 12:19:31;;;;;;;5.20;4.80;;;15.70;99.90;;;;;;6297261;22;20426;-96
2021/08/29 12:21:57;;;;;;;4.50;4.20;;;15.70;99.90;;;;;;6324185;22;20399;-94
2021/08/29 12:24:29;;;;;;;5.63;5.23;;;15.60;99.90;;;;;;6319756;22;20391;-91
2021/08/29 12:27:25;;;;;;;4.23;3.93;;;15.70;99.90;;;;;;6322274;22;20404;-92
2021/08/29 12:29:56;;;;;;;4.80;4.43;;;15.50;99.90;;;;;;6263396;22;20392;-95
2021/08/29 12:32:31;;;;;;;5.43;4.83;;;15.60;99.90;;;;;;6323783;22;20451;-93
2021/08/29 12:35:09;;;;;;;4.10;3.80;;;15.50;99.90;;;;;;6319085;22;20450;-91
2021/08/29 12:37:42;;;;;;;4.10;3.70;;;15.40;99.90;;;;;;6317867;22;20388;-93
2021/08/29 12:40:15;;;;;;;4.03;3.73;;;15.50;99.90;;;;;;6318879;22;20408;-96
2021/08/29 12:42:42;;;;;;;4.20;3.90;;;15.40;99.90;;;;;;6323713;22;20870;-93
2021/08/29 12:45:11;;;;;;;4.13;3.83;;;15.30;99.90;;;;;;6325218;22;20400;-92
2021/08/29 12:47:39;;;;;;;3.40;3.20;;;15.20;99.90;;;;;;6327272;22;20384;-94
2021/08/29 12:50:07;;;;;;;3.60;3.30;;;15.20;99.90;;;;;;6323483;22;20479;-92
2021/08/29 12:52:46;;;;;;;4.13;3.83;;;15.10;99.90;;;;;;6327021;22;20773;-96
2021/08/29 12:55:13;;;;;;;4.27;3.97;;;15.10;99.90;;;;;;6328833;22;20446;-96
2021/08/29 12:57:39;;;;;;;4.47;4.17;;;15.10;99.90;;;;;;6324626;22;20794;-92
2021/08/29 13:00:06;;;;;;;4.53;4.17;;;15.20;99.90;;;;;;6325778;22;20415;-96
2021/08/29 13:02:38;;;;;;;4.40;4.10;;;15.20;99.90;;;;;;6329478;22;20208;-94
2021/08/29 13:05:04;;;;;;;5.30;4.90;;;15.30;99.90;;;;;;6328404;22;20397;-93
2021/08/29 13:07:52;;;;;;;6.70;6.10;;;15.40;99.90;;;;;;6317220;22;20443;-96
2021/08/29 13:13:21;;;;;;;4.80;4.50;;;15.50;99.90;;;;;;6257503;22;20444;-95
2021/08/29 13:18:27;;;;;;;5.30;4.80;;;15.30;99.90;;;;;;6202273;22;20461;-90
2021/08/29 13:20:52;;;;;;;6.30;5.90;;;15.30;99.90;;;;;;6210867;23;20426;-89
2021/08/29 13:23:35;;;;;;;4.57;4.27;;;15.40;99.90;;;;;;6208778;23;20936;-89
2021/08/29 13:26:03;;;;;;;7.40;6.70;;;15.10;99.90;;;;;;6208731;23;20170;-87
2021/08/29 13:28:30;;;;;;;5.50;5.10;;;15.00;99.90;;;;;;6207539;23;20394;-87
2021/08/29 13:31:07;;;;;;;5.87;5.40;;;14.80;99.90;;;;;;6210601;23;20393;-88
2021/08/29 13:33:35;;;;;;;4.80;4.40;;;14.80;99.90;;;;;;6210483;23;20484;-87
2021/08/29 13:36:08;;;;;;;8.40;7.80;;;14.70;99.90;;;;;;6209624;23;20448;-88
2021/08/29 13:38:37;;;;;;;5.20;4.70;;;14.80;99.90;;;;;;6211021;23;20390;-87
2021/08/29 13:41:06;;;;;;;8.33;7.63;;;14.80;99.90;;;;;;6209968;23;20751;-90
2021/08/29 13:43:40;;;;;;;6.43;4.73;;;14.80;99.90;;;;;;6237234;23;20554;-90
2021/08/29 13:46:08;;;;;;;6.83;6.30;;;14.70;99.90;;;;;;6209463;23;20429;-90
2021/08/29 13:48:34;;;;;;;8.10;7.40;;;14.80;99.90;;;;;;6206881;23;20403;-87
2021/08/29 13:51:00;;;;;;;16.63;15.30;;;14.70;99.90;;;;;;6210406;23;20779;-88
2021/08/29 13:53:31;;;;;;;7.70;7.10;;;14.70;99.90;;;;;;6210962;23;20398;-86
2021/08/29 13:55:58;;;;;;;6.87;6.27;;;14.70;99.90;;;;;;6214009;23;20438;-87
2021/08/29 13:58:25;;;;;;;7.93;7.33;;;14.80;99.90;;;;;;6210660;23;20476;-87
2021/08/29 14:00:52;;;;;;;6.23;5.73;;;14.70;99.90;;;;;;6210445;23;20402;-88
2021/08/29 14:03:18;;;;;;;6.93;6.43;;;14.60;99.90;;;;;;6211247;23;20394;-88
2021/08/29 14:05:44;;;;;;;8.20;7.60;;;14.60;99.90;;;;;;6211132;23;20412;-87
2021/08/29 14:08:09;;;;;;;5.90;5.50;;;14.60;99.90;;;;;;6211104;23;20441;-87
2021/08/29 14:10:35;;;;;;;9.53;8.83;;;14.50;99.90;;;;;;6209631;23;20163;-87